Time;durP1;ratioP1;P1;durP2;ratioP2;P2;SDS_P1;SDS_P2;PMS_P1;PMS_P2;Temp;Humidity;BMP_temperature;BMP_pressure;BME280_temperature;BME280_humidity;BME280_pressure;Samples;Min_cycle;Max_cycle;Signal;HPM_P1;HPM_P2
2020/12/20 00:00:24;;;;;;;9.07;3.25;;;24.20;56.10;;;;;;6365639;22;20069;-74
2020/12/20 00:02:53;;;;;;;6.50;2.80;;;24.20;56.20;;;;;;6364859;22;20006;-73
2020/12/20 00:05:22;;;;;;;15.90;4.43;;;24.20;56.30;;;;;;6364739;22;20061;-74
2020/12/20 00:07:50;;;;;;;9.63;2.90;;;24.20;56.20;;;;;;6365599;22;20426;-75
2020/12/20 00:10:17;;;;;;;5.55;2.75;;;24.10;56.00;;;;;;6363881;22;20033;-74
2020/12/20 00:12:45;;;;;;;11.57;2.92;;;24.10;55.90;;;;;;6365033;22;20034;-74
2020/12/20 00:15:11;;;;;;;7.38;2.65;;;24.10;55.80;;;;;;6364561;22;20077;-73
2020/12/20 00:17:38;;;;;;;9.93;4.32;;;24.10;55.90;;;;;;6365654;22;20587;-74
2020/12/20 00:20:08;;;;;;;17.27;3.72;;;24.10;56.00;;;;;;6365243;22;20006;-73
2020/12/20 00:22:34;;;;;;;10.00;2.42;;;24.10;56.00;;;;;;6365562;22;19998;-73
2020/12/20 00:25:01;;;;;;;9.70;3.45;;;24.10;56.20;;;;;;6365140;22;20453;-73
2020/12/20 00:27:28;;;;;;;7.47;2.83;;;24.00;56.40;;;;;;6364521;22;20038;-73
2020/12/20 00:29:55;;;;;;;14.60;2.58;;;24.00;56.50;;;;;;6365652;22;19994;-73
2020/12/20 00:32:21;;;;;;;12.65;2.80;;;24.00;56.50;;;;;;6363654;22;20042;-73
2020/12/20 00:34:48;;;;;;;11.85;2.75;;;24.00;56.20;;;;;;6365448;22;20547;-74
2020/12/20 00:37:14;;;;;;;7.43;1.80;;;24.00;55.90;;;;;;6364568;22;20434;-74
2020/12/20 00:39:42;;;;;;;7.30;3.15;;;24.00;55.70;;;;;;6365156;22;20044;-73
2020/12/20 00:42:08;;;;;;;11.95;3.65;;;24.00;55.60;;;;;;6365608;22;20483;-73
2020/12/20 00:44:35;;;;;;;16.52;3.50;;;24.00;55.50;;;;;;6364504;22;20052;-74
2020/12/20 00:47:04;;;;;;;10.65;2.35;;;24.00;55.60;;;;;;6365460;22;20026;-73
2020/12/20 00:49:33;;;;;;;11.38;3.17;;;24.00;55.70;;;;;;6363951;22;19995;-73
2020/12/20 00:52:03;;;;;;;8.07;2.50;;;24.00;55.80;;;;;;6365183;22;20018;-73
2020/12/20 00:54:29;;;;;;;7.55;2.63;;;24.00;55.80;;;;;;6363859;22;20002;-73
2020/12/20 00:56:56;;;;;;;11.93;3.10;;;24.00;55.90;;;;;;6365389;22;20010;-73
2020/12/20 00:59:23;;;;;;;8.00;2.63;;;24.00;56.00;;;;;;6365604;22;20008;-74
2020/12/20 01:01:49;;;;;;;8.35;3.38;;;23.90;56.00;;;;;;6364285;22;20368;-73
2020/12/20 01:04:16;;;;;;;9.52;2.33;;;23.90;56.10;;;;;;6365575;22;20006;-74
2020/12/20 01:06:42;;;;;;;9.00;2.67;;;23.90;56.30;;;;;;6363738;22;20006;-73
2020/12/20 01:09:09;;;;;;;8.05;2.70;;;23.90;56.60;;;;;;6366158;22;20372;-74
2020/12/20 01:11:35;;;;;;;12.60;2.78;;;23.90;56.70;;;;;;6363897;22;20400;-73
2020/12/20 01:14:03;;;;;;;8.80;3.33;;;23.90;56.80;;;;;;6366061;22;20006;-73
2020/12/20 01:16:30;;;;;;;8.93;3.13;;;23.90;56.90;;;;;;6366969;22;20113;-74
2020/12/20 01:18:58;;;;;;;6.93;2.00;;;23.90;56.40;;;;;;6366789;22;20005;-73
2020/12/20 01:21:25;;;;;;;12.55;3.22;;;23.90;56.10;;;;;;6367782;22;20011;-73
2020/12/20 01:23:52;;;;;;;5.20;1.92;;;23.90;55.90;;;;;;6365933;22;20002;-74
2020/12/20 01:26:21;;;;;;;9.48;3.03;;;23.90;55.80;;;;;;6366911;22;20003;-73
2020/12/20 01:28:48;;;;;;;10.30;2.50;;;23.80;55.90;;;;;;6365801;22;20007;-73
2020/12/20 01:31:14;;;;;;;11.95;3.30;;;23.80;56.00;;;;;;6367208;22;20002;-74
2020/12/20 01:33:42;;;;;;;11.48;3.55;;;23.80;56.20;;;;;;6366113;22;20041;-74
2020/12/20 01:36:10;;;;;;;10.98;3.03;;;23.80;56.40;;;;;;6366560;22;20006;-73
2020/12/20 01:38:37;;;;;;;9.45;2.58;;;23.80;56.60;;;;;;6366967;22;20430;-74
2020/12/20 01:41:05;;;;;;;10.88;2.75;;;23.80;56.80;;;;;;6366104;22;20071;-73
2020/12/20 01:43:45;;;;;;;7.43;2.67;;;23.80;56.80;;;;;;6367356;22;20009;-74
2020/12/20 01:46:14;;;;;;;9.82;2.70;;;23.80;56.90;;;;;;6365401;22;20013;-74
2020/12/20 01:48:40;;;;;;;5.38;1.83;;;23.80;57.10;;;;;;6366750;22;20070;-73
2020/12/20 01:51:08;;;;;;;9.13;2.70;;;23.70;57.20;;;;;;6366253;22;20022;-74
2020/12/20 01:53:36;;;;;;;9.25;2.20;;;23.70;57.40;;;;;;6365770;22;20018;-74
2020/12/20 01:56:04;;;;;;;12.45;3.92;;;23.70;57.60;;;;;;6366562;22;20464;-74
2020/12/20 01:58:36;;;;;;;6.65;2.70;;;23.70;57.70;;;;;;6365913;22;19998;-73
2020/12/20 02:01:07;;;;;;;7.53;2.55;;;23.70;57.60;;;;;;6366706;22;20003;-74
2020/12/20 02:03:35;;;;;;;7.47;2.42;;;23.70;57.20;;;;;;6365241;22;20025;-74
2020/12/20 02:06:03;;;;;;;6.35;2.13;;;23.70;56.80;;;;;;6366406;22;20010;-74
2020/12/20 02:08:29;;;;;;;7.53;3.97;;;23.70;56.50;;;;;;6366797;22;20010;-74
2020/12/20 02:11:10;;;;;;;8.05;3.00;;;23.70;56.40;;;;;;6365586;22;20430;-74
2020/12/20 02:13:45;;;;;;;14.10;3.22;;;23.70;56.40;;;;;;6367533;22;20014;-74
2020/12/20 02:16:19;;;;;;;10.60;2.80;;;23.70;56.80;;;;;;6364831;22;20002;-73
2020/12/20 02:18:46;;;;;;;7.65;3.03;;;23.70;57.20;;;;;;6366967;22;20577;-74
2020/12/20 02:21:19;;;;;;;11.60;4.20;;;23.70;57.50;;;;;;6365267;22;20322;-73
2020/12/20 02:23:47;;;;;;;10.95;2.60;;;23.70;57.80;;;;;;6366298;22;20069;-74
2020/12/20 02:26:24;;;;;;;11.50;3.72;;;23.70;58.10;;;;;;6367184;22;20414;-73
2020/12/20 02:28:52;;;;;;;11.40;3.10;;;23.60;58.20;;;;;;6365912;22;20006;-74
2020/12/20 02:31:20;;;;;;;9.73;3.78;;;23.60;58.40;;;;;;6366506;22;20006;-74
2020/12/20 02:33:47;;;;;;;8.85;3.85;;;23.60;58.50;;;;;;6365061;22;20010;-73
2020/12/20 02:36:14;;;;;;;12.85;3.55;;;23.60;58.60;;;;;;6366779;22;20033;-73
2020/12/20 02:38:41;;;;;;;6.85;2.50;;;23.60;58.70;;;;;;6365868;22;20009;-74
2020/12/20 02:41:08;;;;;;;10.68;2.50;;;23.60;58.90;;;;;;6365790;22;19990;-73
2020/12/20 02:43:35;;;;;;;10.82;3.10;;;23.60;59.10;;;;;;6366424;22;20433;-74
2020/12/20 02:46:01;;;;;;;9.40;3.15;;;23.60;59.20;;;;;;6364477;22;20441;-73
2020/12/20 02:48:28;;;;;;;11.57;2.85;;;23.60;59.30;;;;;;6366677;22;20003;-73
2020/12/20 02:50:54;;;;;;;9.15;3.08;;;23.60;59.40;;;;;;6364213;22;20047;-73
2020/12/20 02:53:21;;;;;;;9.77;2.67;;;23.60;59.50;;;;;;6366428;22;20461;-73
2020/12/20 02:55:47;;;;;;;13.95;3.65;;;23.60;59.50;;;;;;6365787;22;20033;-73
2020/12/20 02:58:14;;;;;;;7.78;2.70;;;23.50;59.40;;;;;;6366339;22;19998;-73
2020/12/20 03:00:40;;;;;;;10.45;4.50;;;23.50;59.30;;;;;;6366517;22;20029;-74
2020/12/20 03:03:07;;;;;;;24.52;14.10;;;23.50;59.20;;;;;;6365905;22;20006;-73
2020/12/20 03:05:33;;;;;;;20.80;10.82;;;23.50;59.30;;;;;;6366777;22;20350;-74
2020/12/20 03:08:00;;;;;;;22.15;8.82;;;23.50;59.40;;;;;;6365023;22;20013;-74
2020/12/20 03:10:26;;;;;;;15.50;7.32;;;23.50;59.50;;;;;;6366352;22;20030;-74
2020/12/20 03:12:53;;;;;;;8.93;4.57;;;23.50;59.50;;;;;;6364966;22;20382;-74
2020/12/20 03:15:20;;;;;;;13.95;4.68;;;23.50;59.50;;;;;;6365827;22;20003;-73
2020/12/20 03:17:47;;;;;;;10.90;4.32;;;23.50;59.50;;;;;;6365927;22;20017;-73
2020/12/20 03:20:13;;;;;;;13.57;4.10;;;23.50;59.50;;;;;;6365449;22;20037;-73
2020/12/20 03:22:39;;;;;;;11.55;3.67;;;23.40;59.60;;;;;;6365902;22;20421;-73
2020/12/20 03:25:06;;;;;;;13.20;4.07;;;23.40;59.90;;;;;;6364589;22;20029;-73
2020/12/20 03:27:33;;;;;;;9.27;3.08;;;23.40;60.00;;;;;;6365552;22;20010;-74
2020/12/20 03:29:59;;;;;;;8.13;2.95;;;23.40;60.20;;;;;;6365145;22;20006;-74
2020/12/20 03:32:26;;;;;;;12.18;3.03;;;23.40;60.20;;;;;;6365731;22;20333;-74
2020/12/20 03:34:53;;;;;;;9.20;3.03;;;23.40;60.20;;;;;;6365302;22;20057;-73
2020/12/20 03:37:20;;;;;;;10.82;3.22;;;23.40;60.20;;;;;;6364996;22;20096;-73
2020/12/20 03:39:46;;;;;;;12.50;2.42;;;23.40;60.10;;;;;;6365694;22;20048;-73
2020/12/20 03:42:13;;;;;;;9.10;2.55;;;23.40;60.00;;;;;;6365482;22;20063;-74
2020/12/20 03:44:39;;;;;;;11.20;3.17;;;23.40;59.80;;;;;;6366167;22;20002;-73
2020/12/20 03:47:06;;;;;;;15.63;4.78;;;23.40;59.80;;;;;;6364957;22;20315;-74
2020/12/20 03:49:32;;;;;;;12.30;7.13;;;23.40;60.50;;;;;;6365865;22;20118;-73
2020/12/20 03:51:59;;;;;;;16.80;7.38;;;23.30;60.10;;;;;;6364750;22;20018;-73
2020/12/20 03:54:25;;;;;;;12.63;5.05;;;23.30;60.40;;;;;;6365493;22;20449;-73
2020/12/20 03:56:54;;;;;;;21.83;4.75;;;23.30;60.60;;;;;;6365714;22;20002;-73
2020/12/20 03:59:22;;;;;;;13.05;5.28;;;23.30;60.90;;;;;;6364703;22;20087;-73
2020/12/20 04:01:48;;;;;;;12.18;4.55;;;23.30;61.00;;;;;;6365931;22;20053;-73
2020/12/20 04:04:15;;;;;;;14.82;4.80;;;23.30;61.20;;;;;;6364358;22;20002;-74
2020/12/20 04:06:42;;;;;;;14.85;4.45;;;23.30;62.00;;;;;;6365640;22;20003;-73
2020/12/20 04:09:08;;;;;;;11.75;4.20;;;23.30;61.40;;;;;;6365055;22;19995;-73
2020/12/20 04:11:35;;;;;;;12.43;4.20;;;23.30;61.50;;;;;;6364602;22;20426;-73
2020/12/20 04:14:01;;;;;;;15.52;4.88;;;23.30;61.70;;;;;;6365491;22;19998;-73
2020/12/20 04:16:28;;;;;;;14.05;5.70;;;23.30;61.80;;;;;;6364601;22;20310;-71
2020/12/20 04:18:54;;;;;;;18.42;8.52;;;23.30;62.00;;;;;;6365828;22;20542;-72
2020/12/20 04:21:21;;;;;;;17.67;7.88;;;23.30;62.10;;;;;;6362805;22;20048;-71
2020/12/20 04:23:47;;;;;;;15.10;6.03;;;23.30;62.20;;;;;;6364040;22;20017;-73
2020/12/20 04:26:14;;;;;;;18.73;5.20;;;23.20;62.20;;;;;;6362662;22;20077;-71
2020/12/20 04:28:40;;;;;;;16.33;5.72;;;23.20;62.20;;;;;;6363746;22;20085;-72
2020/12/20 04:31:07;;;;;;;15.82;4.45;;;23.30;62.30;;;;;;6363931;22;20001;-72
2020/12/20 04:33:34;;;;;;;10.20;3.80;;;23.30;62.20;;;;;;6363512;22;20050;-72
2020/12/20 04:36:01;;;;;;;12.73;3.70;;;23.20;62.20;;;;;;6363914;22;20010;-71
2020/12/20 04:38:27;;;;;;;8.45;4.07;;;23.20;62.20;;;;;;6362823;22;20030;-73
2020/12/20 04:40:54;;;;;;;11.63;4.10;;;23.20;62.20;;;;;;6363842;22;20458;-73
2020/12/20 04:43:22;;;;;;;10.57;3.30;;;23.30;62.10;;;;;;6362573;22;20035;-73
2020/12/20 04:45:53;;;;;;;10.40;4.20;;;23.30;61.90;;;;;;6363818;22;20007;-73
2020/12/20 04:48:20;;;;;;;13.68;4.25;;;23.30;61.80;;;;;;6364153;22;19998;-73
2020/12/20 04:50:48;;;;;;;10.70;4.90;;;23.30;61.80;;;;;;6365110;22;20036;-73
2020/12/20 04:53:15;;;;;;;15.65;5.72;;;23.20;61.80;;;;;;6366105;22;20125;-73
2020/12/20 04:55:42;;;;;;;12.70;4.93;;;23.30;61.90;;;;;;6364559;22;20002;-74
2020/12/20 04:58:09;;;;;;;17.05;4.93;;;23.20;62.00;;;;;;6366475;22;20009;-74
2020/12/20 05:00:36;;;;;;;15.68;4.18;;;23.30;62.20;;;;;;6336400;22;20489;-75
2020/12/20 05:03:02;;;;;;;13.50;4.40;;;23.30;62.20;;;;;;6366342;22;19998;-75
2020/12/20 05:05:29;;;;;;;13.75;4.15;;;23.30;62.40;;;;;;6365384;22;20393;-74
2020/12/20 05:07:57;;;;;;;11.27;4.30;;;23.30;62.40;;;;;;6365869;22;20022;-73
2020/12/20 05:10:38;;;;;;;10.23;4.47;;;23.30;62.50;;;;;;6366155;22;20403;-73
2020/12/20 05:13:06;;;;;;;12.10;4.35;;;23.30;62.50;;;;;;6364909;22;20010;-73
2020/12/20 05:15:33;;;;;;;15.75;4.90;;;23.30;62.60;;;;;;6365987;22;20005;-74
2020/12/20 05:18:06;;;;;;;17.23;6.22;;;23.30;62.60;;;;;;6364299;22;20013;-74
2020/12/20 05:20:38;;;;;;;12.00;4.03;;;23.30;62.60;;;;;;6365902;22;20299;-73
2020/12/20 05:23:06;;;;;;;11.45;4.40;;;23.30;62.60;;;;;;6364820;22;20404;-73
2020/12/20 05:25:34;;;;;;;12.82;3.50;;;23.40;62.80;;;;;;6365313;22;20016;-73
2020/12/20 05:28:24;;;;;;;14.38;3.55;;;23.40;62.80;;;;;;6365751;22;20007;-76
2020/12/20 05:30:50;;;;;;;10.73;4.53;;;23.40;62.80;;;;;;6364089;22;20007;-72
2020/12/20 05:33:29;;;;;;;14.52;4.85;;;23.40;62.80;;;;;;6366079;22;20036;-72
2020/12/20 05:36:07;;;;;;;12.85;4.70;;;23.50;62.80;;;;;;6364195;22;20453;-71
2020/12/20 05:38:36;;;;;;;10.07;3.83;;;23.40;62.60;;;;;;6364628;22;19998;-74
2020/12/20 05:41:04;;;;;;;12.25;4.65;;;23.50;62.60;;;;;;6365161;22;20030;-73
2020/12/20 05:43:32;;;;;;;12.10;4.20;;;23.50;62.50;;;;;;6364229;22;20032;-71
2020/12/20 05:45:59;;;;;;;21.13;7.55;;;23.60;62.40;;;;;;6365414;22;20017;-73
2020/12/20 05:48:30;;;;;;;12.57;6.65;;;23.60;62.40;;;;;;6365142;22;20006;-72
2020/12/20 05:51:02;;;;;;;12.55;5.40;;;23.60;62.40;;;;;;6365075;22;20003;-76
2020/12/20 05:53:31;;;;;;;22.48;7.18;;;23.70;62.30;;;;;;6365031;22;20014;-74
2020/12/20 05:56:00;;;;;;;18.70;4.88;;;23.70;62.20;;;;;;6364860;22;20003;-73
2020/12/20 05:58:34;;;;;;;14.10;4.85;;;23.70;62.00;;;;;;6366123;22;20368;-72
2020/12/20 06:01:01;;;;;;;13.38;4.78;;;23.80;62.00;;;;;;6364357;22;19998;-74
2020/12/20 06:04:07;;;;;;;14.20;4.18;;;23.80;61.90;;;;;;6365715;22;20085;-74
2020/12/20 06:07:13;;;;;;;11.38;4.65;;;23.80;61.90;;;;;;6364752;22;20109;-74
2020/12/20 06:10:12;;;;;;;16.92;5.32;;;23.80;61.90;;;;;;6364113;22;20368;-73
2020/12/20 06:13:18;;;;;;;12.50;6.95;;;23.90;62.10;;;;;;6364823;22;20006;-72
2020/12/20 06:16:04;;;;;;;;;;;23.90;62.10;;;;;;6366450;22;19998;-72
2020/12/20 06:19:10;;;;;;;19.15;5.93;;;24.00;62.20;;;;;;6364216;22;19923;-72
2020/12/20 06:22:26;;;;;;;12.27;4.57;;;23.90;62.10;;;;;;6363834;22;20018;-72
2020/12/20 06:25:32;;;;;;;18.03;5.30;;;24.00;62.20;;;;;;6352794;22;20030;-70
2020/12/20 06:28:44;;;;;;;13.90;4.72;;;24.00;62.20;;;;;;6363736;22;20059;-71
2020/12/20 06:31:12;;;;;;;15.02;3.92;;;24.10;62.40;;;;;;6361669;22;20002;-71
2020/12/20 06:33:46;;;;;;;13.98;3.75;;;24.10;62.40;;;;;;6363331;22;20014;-71
2020/12/20 06:36:15;;;;;;;11.70;3.45;;;24.10;62.20;;;;;;6364717;22;20002;-71
2020/12/20 06:38:41;;;;;;;13.88;4.32;;;24.20;62.10;;;;;;6365845;22;20081;-71
2020/12/20 06:41:08;;;;;;;8.90;3.03;;;24.20;62.10;;;;;;6365885;22;20010;-71
2020/12/20 06:43:37;;;;;;;18.30;4.07;;;24.20;62.00;;;;;;6365687;22;20077;-71
2020/12/20 06:46:05;;;;;;;7.63;3.75;;;24.30;62.00;;;;;;6365837;22;20117;-71
2020/12/20 06:48:37;;;;;;;12.23;3.72;;;24.30;62.00;;;;;;6365221;22;20694;-71
2020/12/20 06:51:05;;;;;;;12.85;3.70;;;24.30;62.00;;;;;;6365937;22;20094;-71
2020/12/20 06:53:47;;;;;;;13.70;3.97;;;24.40;62.10;;;;;;6364385;22;20014;-70
2020/12/20 06:56:24;;;;;;;15.48;3.85;;;24.40;62.00;;;;;;6365386;22;20009;-71
2020/12/20 06:58:52;;;;;;;16.58;3.95;;;24.40;62.00;;;;;;6366637;22;20318;-72
2020/12/20 07:01:40;;;;;;;18.08;3.65;;;24.50;61.90;;;;;;6365018;22;20048;-71
2020/12/20 07:04:16;;;;;;;15.75;3.75;;;24.50;61.80;;;;;;6365744;22;20010;-71
2020/12/20 07:07:05;;;;;;;14.05;4.70;;;24.60;61.70;;;;;;6364963;22;20426;-73
2020/12/20 07:09:34;;;;;;;14.13;4.80;;;24.60;61.50;;;;;;6364797;22;20002;-73
2020/12/20 07:12:01;;;;;;;20.40;4.70;;;24.70;61.40;;;;;;6365447;22;20006;-73
2020/12/20 07:14:35;;;;;;;12.98;3.83;;;24.70;61.20;;;;;;6364605;22;20460;-72
2020/12/20 07:17:01;;;;;;;11.43;4.18;;;24.80;61.00;;;;;;6365641;22;20002;-75
2020/12/20 07:19:28;;;;;;;11.88;4.32;;;24.80;60.90;;;;;;6363780;22;20082;-76
2020/12/20 07:21:54;;;;;;;9.80;3.50;;;24.80;60.80;;;;;;6365911;22;20002;-77
2020/12/20 07:24:37;;;;;;;14.55;3.83;;;24.90;60.70;;;;;;6365730;22;20043;-75
2020/12/20 07:27:05;;;;;;;11.40;4.10;;;24.90;60.50;;;;;;6364980;22;20048;-73
2020/12/20 07:29:34;;;;;;;11.77;3.33;;;25.00;60.50;;;;;;6365631;22;20451;-73
2020/12/20 07:32:04;;;;;;;17.38;4.40;;;25.00;60.40;;;;;;6364097;22;20010;-74
2020/12/20 07:34:30;;;;;;;8.75;3.50;;;25.10;60.20;;;;;;6365692;22;19998;-70
2020/12/20 07:36:57;;;;;;;16.58;6.03;;;25.10;60.00;;;;;;6364965;22;20051;-70
2020/12/20 07:39:25;;;;;;;12.55;4.25;;;25.10;59.90;;;;;;6365498;22;20006;-72
2020/12/20 07:41:56;;;;;;;12.40;4.25;;;25.20;59.70;;;;;;6365462;22;20002;-72
2020/12/20 07:44:22;;;;;;;13.00;3.70;;;25.30;59.50;;;;;;6364579;22;20002;-71
2020/12/20 07:46:49;;;;;;;8.90;2.80;;;25.30;59.40;;;;;;6365646;22;20028;-73
2020/12/20 07:49:16;;;;;;;8.68;3.38;;;25.30;59.30;;;;;;6364480;22;20056;-72
2020/12/20 07:51:43;;;;;;;14.02;3.58;;;25.40;59.10;;;;;;6364968;22;20047;-71
2020/12/20 07:54:11;;;;;;;12.82;3.72;;;25.40;58.90;;;;;;6364305;22;20006;-71
2020/12/20 07:56:48;;;;;;;11.38;3.70;;;25.50;58.70;;;;;;6365328;22;20124;-70
2020/12/20 07:59:16;;;;;;;18.13;3.53;;;25.50;58.30;;;;;;6365388;22;20025;-71
2020/12/20 08:01:45;;;;;;;6.95;3.05;;;25.60;57.90;;;;;;6364810;22;19994;-70
2020/12/20 08:04:16;;;;;;;8.65;3.33;;;25.60;57.60;;;;;;6365343;22;19998;-70
2020/12/20 08:06:52;;;;;;;13.73;2.85;;;25.70;57.50;;;;;;6363931;22;20026;-71
2020/12/20 08:09:23;;;;;;;12.60;3.85;;;25.80;57.20;;;;;;6365717;22;20090;-71
2020/12/20 08:11:51;;;;;;;12.00;3.85;;;25.90;57.00;;;;;;6364848;22;20029;-72
2020/12/20 08:14:19;;;;;;;8.57;2.95;;;25.90;56.60;;;;;;6365637;22;20434;-70
2020/12/20 08:16:49;;;;;;;6.95;2.92;;;26.00;56.50;;;;;;6365264;22;20003;-70
2020/12/20 08:19:18;;;;;;;7.05;3.05;;;26.00;56.40;;;;;;6364334;22;20713;-71
2020/12/20 08:22:10;;;;;;;11.82;3.75;;;26.10;56.30;;;;;;6366110;22;20044;-70
2020/12/20 08:24:39;;;;;;;10.05;3.55;;;26.10;56.20;;;;;;6365804;22;20018;-70
2020/12/20 08:27:28;;;;;;;11.45;5.70;;;26.20;56.20;;;;;;6367120;22;20081;-72
2020/12/20 08:30:01;;;;;;;14.45;7.55;;;26.30;55.70;;;;;;6368346;22;20074;-72
2020/12/20 08:32:35;;;;;;;11.68;3.78;;;26.30;55.50;;;;;;6365514;22;20411;-72
2020/12/20 08:35:19;;;;;;;8.80;3.97;;;26.40;55.30;;;;;;6367996;22;20002;-74
2020/12/20 08:37:50;;;;;;;7.13;3.80;;;26.50;55.40;;;;;;6367396;22;20038;-72
2020/12/20 08:40:18;;;;;;;11.07;3.90;;;26.50;55.30;;;;;;6366951;22;20019;-72
2020/12/20 08:42:46;;;;;;;11.23;3.20;;;26.60;55.30;;;;;;6367426;22;19998;-72
2020/12/20 08:45:23;;;;;;;9.05;3.15;;;26.60;55.30;;;;;;6366044;22;20025;-73
2020/12/20 08:47:51;;;;;;;15.65;4.07;;;26.70;55.50;;;;;;6367686;22;20002;-73
2020/12/20 08:50:25;;;;;;;16.60;3.97;;;26.80;55.60;;;;;;6366147;22;20481;-71
2020/12/20 08:53:03;;;;;;;11.90;3.92;;;26.80;55.40;;;;;;6366356;22;20469;-70
2020/12/20 08:55:30;;;;;;;14.32;4.72;;;26.80;55.40;;;;;;6367214;22;20006;-71
2020/12/20 08:58:08;;;;;;;8.45;3.45;;;26.90;55.40;;;;;;6366448;22;20001;-71
2020/12/20 09:00:35;;;;;;;10.43;4.22;;;26.90;55.20;;;;;;6367849;22;20003;-71
2020/12/20 09:03:04;;;;;;;13.77;3.97;;;27.00;55.00;;;;;;6365635;22;20002;-73
2020/12/20 09:05:34;;;;;;;17.75;3.75;;;27.00;54.90;;;;;;6367659;22;20533;-73
2020/12/20 09:08:02;;;;;;;12.40;3.20;;;27.00;54.80;;;;;;6367404;22;20003;-72
2020/12/20 09:10:31;;;;;;;14.82;4.45;;;27.10;54.40;;;;;;6366401;22;20729;-70
2020/12/20 09:13:09;;;;;;;13.13;3.53;;;27.10;54.20;;;;;;6367114;22;20326;-71
2020/12/20 09:15:39;;;;;;;17.60;4.20;;;27.20;54.20;;;;;;6366263;22;20079;-72
2020/12/20 09:18:19;;;;;;;12.38;3.65;;;27.30;53.90;;;;;;6368021;22;20006;-72
2020/12/20 09:20:46;;;;;;;9.18;2.92;;;27.40;53.90;;;;;;6366869;22;20139;-72
2020/12/20 09:23:21;;;;;;;9.57;4.15;;;27.40;53.70;;;;;;6366933;22;20010;-73
2020/12/20 09:25:49;;;;;;;12.18;4.13;;;27.50;53.40;;;;;;6366680;22;20003;-73
2020/12/20 09:28:25;;;;;;;9.98;3.90;;;27.60;53.20;;;;;;6366273;22;20073;-73
2020/12/20 09:30:54;;;;;;;12.02;4.07;;;27.70;52.90;;;;;;6366850;22;20021;-71
2020/12/20 09:33:36;;;;;;;13.15;4.25;;;27.80;52.70;;;;;;6366018;22;20006;-73
2020/12/20 09:36:20;;;;;;;7.15;2.83;;;27.90;52.40;;;;;;6366887;22;20006;-74
2020/12/20 09:38:53;;;;;;;10.55;3.78;;;27.90;52.00;;;;;;6366772;22;20333;-73
2020/12/20 09:41:28;;;;;;;18.77;9.07;;;28.00;51.90;;;;;;6365724;22;19994;-73
2020/12/20 09:43:56;;;;;;;24.30;7.28;;;28.10;52.80;;;;;;6366688;22;20014;-74
2020/12/20 09:46:24;;;;;;;15.48;6.55;;;28.20;52.00;;;;;;6366100;22;20311;-74
2020/12/20 09:48:52;;;;;;;12.30;5.78;;;28.30;51.90;;;;;;6366856;22;20005;-74
2020/12/20 09:51:19;;;;;;;11.05;4.70;;;28.30;51.60;;;;;;6365545;22;20637;-73
2020/12/20 09:53:50;;;;;;;13.70;4.68;;;28.30;51.40;;;;;;6366664;22;20025;-74
2020/12/20 09:56:20;;;;;;;14.40;5.18;;;28.40;51.50;;;;;;6367246;22;20089;-74
2020/12/20 09:58:47;;;;;;;11.40;9.02;;;28.40;51.70;;;;;;6365692;22;20002;-75
2020/12/20 10:01:28;;;;;;;12.27;7.40;;;28.50;51.70;;;;;;6366958;22;20453;-74
2020/12/20 10:03:55;;;;;;;100.63;90.13;;;28.60;51.70;;;;;;6365571;22;20440;-75
2020/12/20 10:06:21;;;;;;;67.25;60.22;;;28.70;51.60;;;;;;6366138;22;20010;-74
2020/12/20 10:08:48;;;;;;;78.78;65.35;;;28.80;51.70;;;;;;6365908;22;19999;-73
2020/12/20 10:11:21;;;;;;;155.18;133.05;;;28.80;51.40;;;;;;6366198;22;20017;-73
2020/12/20 10:13:47;;;;;;;73.18;55.05;;;28.90;51.40;;;;;;6367099;22;20018;-74
2020/12/20 10:16:20;;;;;;;49.75;37.70;;;28.90;51.30;;;;;;6365435;22;20003;-72
2020/12/20 10:18:47;;;;;;;44.28;35.10;;;29.00;50.90;;;;;;6367556;22;20007;-73
2020/12/20 10:21:15;;;;;;;105.78;94.53;;;29.10;51.00;;;;;;6365354;22;19998;-73
2020/12/20 10:23:41;;;;;;;154.98;94.53;;;29.10;50.80;;;;;;6366567;22;20007;-73
2020/12/20 10:26:11;;;;;;;80.15;56.88;;;29.10;50.80;;;;;;6366062;22;20006;-72
2020/12/20 10:28:39;;;;;;;79.10;57.25;;;29.20;50.70;;;;;;6365984;22;19994;-72
2020/12/20 10:31:06;;;;;;;92.18;68.93;;;29.20;50.20;;;;;;6366567;22;20367;-71
2020/12/20 10:33:32;;;;;;;59.05;42.53;;;29.30;50.10;;;;;;6364830;22;20319;-73
2020/12/20 10:35:59;;;;;;;46.08;28.23;;;29.30;49.90;;;;;;6365985;22;19998;-72
2020/12/20 10:38:25;;;;;;;71.28;61.75;;;29.40;50.00;;;;;;6365553;22;20006;-73
2020/12/20 10:40:51;;;;;;;60.25;50.65;;;29.40;50.00;;;;;;6366663;22;20006;-73
2020/12/20 10:43:18;;;;;;;147.98;116.95;;;29.50;49.70;;;;;;6366620;22;20025;-73
2020/12/20 10:45:45;;;;;;;140.48;118.82;;;29.50;49.60;;;;;;6365863;22;20002;-73
2020/12/20 10:48:11;;;;;;;109.80;92.65;;;29.60;49.70;;;;;;6366086;22;20059;-72
2020/12/20 10:50:38;;;;;;;84.90;75.30;;;29.60;49.80;;;;;;6364881;22;20037;-73
2020/12/20 10:53:04;;;;;;;66.03;58.97;;;29.60;49.90;;;;;;6366486;22;20010;-73
2020/12/20 10:55:31;;;;;;;81.30;72.72;;;29.70;49.80;;;;;;6365544;22;20033;-72
2020/12/20 10:57:57;;;;;;;53.22;47.55;;;29.70;49.80;;;;;;6366488;22;20017;-72
2020/12/20 11:00:24;;;;;;;31.80;25.42;;;29.80;50.00;;;;;;6366053;22;20003;-72
2020/12/20 11:02:50;;;;;;;26.45;21.48;;;29.80;50.00;;;;;;6365556;22;20047;-72
2020/12/20 11:05:17;;;;;;;30.95;24.33;;;29.80;50.20;;;;;;6366185;22;20003;-72
2020/12/20 11:07:44;;;;;;;21.88;15.60;;;29.80;50.10;;;;;;6364905;22;20002;-72
2020/12/20 11:10:10;;;;;;;28.38;18.65;;;29.80;50.10;;;;;;6366423;22;20002;-73
2020/12/20 11:12:37;;;;;;;21.63;14.45;;;29.80;50.00;;;;;;6364060;22;20014;-73
2020/12/20 11:15:03;;;;;;;15.23;9.52;;;29.80;50.20;;;;;;6365879;22;20008;-74
2020/12/20 11:17:30;;;;;;;13.75;7.65;;;29.90;50.20;;;;;;6364761;22;20032;-73
2020/12/20 11:19:56;;;;;;;11.60;7.10;;;29.90;50.10;;;;;;6366264;22;20003;-74
2020/12/20 11:22:23;;;;;;;17.02;6.28;;;30.00;50.10;;;;;;6366182;22;20006;-73
2020/12/20 11:24:49;;;;;;;11.80;5.95;;;30.00;50.30;;;;;;6364835;22;20055;-73
2020/12/20 11:27:16;;;;;;;15.90;6.53;;;30.00;50.40;;;;;;6365871;22;20334;-74
2020/12/20 11:29:42;;;;;;;12.63;6.55;;;30.10;50.50;;;;;;6364596;22;20006;-72
2020/12/20 11:32:09;;;;;;;11.18;5.55;;;30.10;50.50;;;;;;6365529;22;20010;-72
2020/12/20 11:34:35;;;;;;;10.48;4.45;;;30.20;50.60;;;;;;6364941;22;20368;-74
2020/12/20 11:37:02;;;;;;;13.93;5.80;;;30.20;50.50;;;;;;6365970;22;20051;-73
2020/12/20 11:39:28;;;;;;;13.80;8.10;;;30.20;50.40;;;;;;6365456;22;20509;-74
2020/12/20 11:41:55;;;;;;;9.48;5.32;;;30.30;50.50;;;;;;6364904;22;20434;-74
2020/12/20 11:44:22;;;;;;;10.32;4.63;;;30.30;50.40;;;;;;6365848;22;20001;-73
2020/12/20 11:46:49;;;;;;;11.15;4.35;;;30.30;50.60;;;;;;6336332;22;20002;-72
2020/12/20 11:49:17;;;;;;;16.75;5.97;;;30.40;50.60;;;;;;6365826;22;20330;-72
2020/12/20 11:51:45;;;;;;;10.45;4.10;;;30.50;50.70;;;;;;6364445;22;20025;-71
2020/12/20 11:54:12;;;;;;;11.65;4.15;;;30.50;50.30;;;;;;6366260;22;20441;-72
2020/12/20 11:56:39;;;;;;;9.75;3.75;;;30.60;50.30;;;;;;6364860;22;20014;-72
2020/12/20 11:59:09;;;;;;;10.93;4.07;;;30.60;50.50;;;;;;6365306;22;20014;-72
2020/12/20 12:01:37;;;;;;;11.25;4.53;;;30.60;50.60;;;;;;6365926;22;20014;-72
2020/12/20 12:04:04;;;;;;;13.43;5.63;;;30.60;50.80;;;;;;6364774;22;19998;-71
2020/12/20 12:06:32;;;;;;;13.40;5.65;;;30.70;51.00;;;;;;6365514;22;20006;-72
2020/12/20 12:09:00;;;;;;;14.20;5.68;;;30.70;50.90;;;;;;6364498;22;20029;-72
2020/12/20 12:11:27;;;;;;;18.63;6.80;;;30.70;50.90;;;;;;6366270;22;20019;-73
2020/12/20 12:13:54;;;;;;;14.05;5.90;;;30.70;51.00;;;;;;6365392;22;20082;-73
2020/12/20 12:16:22;;;;;;;11.40;5.07;;;30.70;51.10;;;;;;6365319;22;20006;-74
2020/12/20 12:18:50;;;;;;;12.43;7.05;;;30.70;51.20;;;;;;6365570;22;20002;-73
2020/12/20 12:21:17;;;;;;;9.20;6.05;;;30.80;51.10;;;;;;6364321;22;20010;-73
2020/12/20 12:23:45;;;;;;;13.00;7.38;;;30.70;51.10;;;;;;6365392;22;20010;-74
2020/12/20 12:26:13;;;;;;;12.95;7.25;;;30.80;51.40;;;;;;6364551;22;20050;-73
2020/12/20 12:28:40;;;;;;;18.95;7.35;;;30.80;51.50;;;;;;6366307;22;20006;-72
2020/12/20 12:31:07;;;;;;;19.70;9.25;;;30.80;52.00;;;;;;6365042;22;20047;-72
2020/12/20 12:33:34;;;;;;;19.65;9.63;;;30.80;51.60;;;;;;6365474;22;20014;-73
2020/12/20 12:36:03;;;;;;;19.20;8.65;;;30.80;51.70;;;;;;6365233;22;20024;-72
2020/12/20 12:38:30;;;;;;;22.42;7.85;;;30.80;51.50;;;;;;6365150;22;20325;-72
2020/12/20 12:40:58;;;;;;;13.15;7.60;;;30.80;51.50;;;;;;6365219;22;20013;-73
2020/12/20 12:43:25;;;;;;;17.67;8.07;;;30.70;51.70;;;;;;6364754;22;20003;-73
2020/12/20 12:45:53;;;;;;;16.58;8.50;;;30.70;51.70;;;;;;6365120;22;20002;-73
2020/12/20 12:48:20;;;;;;;15.60;7.88;;;30.70;51.90;;;;;;6364748;22;19998;-73
2020/12/20 12:50:49;;;;;;;18.88;7.72;;;30.70;51.90;;;;;;6337128;22;20330;-72